sensor_id;sensor_type;location;lat;lon;timestamp;P1;durP1;ratioP1;P2;durP2;ratioP2
61112;SDS011;47184;57.998;56.184;2023-07-13T00:00:35;1.20;;;0.50;;
61112;SDS011;47184;57.998;56.184;2023-07-13T00:03:02;2.45;;;0.40;;
61112;SDS011;47184;57.998;56.184;2023-07-13T00:05:28;3.70;;;0.50;;
61112;SDS011;47184;57.998;56.184;2023-07-13T00:07:54;0.68;;;0.20;;
61112;SDS011;47184;57.998;56.184;2023-07-13T00:10:21;1.73;;;0.50;;
61112;SDS011;47184;57.998;56.184;2023-07-13T00:12:48;1.13;;;0.40;;
61112;SDS011;47184;57.998;56.184;2023-07-13T00:15:19;1.08;;;0.75;;
61112;SDS011;47184;57.998;56.184;2023-07-13T00:20:17;2.40;;;0.25;;
61112;SDS011;47184;57.998;56.184;2023-07-13T00:22:43;3.10;;;0.35;;
61112;SDS011;47184;57.998;56.184;2023-07-13T00:25:10;1.33;;;0.25;;
61112;SDS011;47184;57.998;56.184;2023-07-13T00:27:37;3.13;;;0.38;;
61112;SDS011;47184;57.998;56.184;2023-07-13T00:30:04;0.45;;;0.30;;
61112;SDS011;47184;57.998;56.184;2023-07-13T00:32:31;4.10;;;0.32;;
61112;SDS011;47184;57.998;56.184;2023-07-13T00:34:58;0.80;;;0.20;;
61112;SDS011;47184;57.998;56.184;2023-07-13T00:37:25;0.20;;;0.17;;
61112;SDS011;47184;57.998;56.184;2023-07-13T00:39:51;1.45;;;0.50;;
61112;SDS011;47184;57.998;56.184;2023-07-13T00:42:17;0.30;;;0.25;;
61112;SDS011;47184;57.998;56.184;2023-07-13T00:47:46;0.30;;;0.20;;
61112;SDS011;47184;57.998;56.184;2023-07-13T00:50:13;2.85;;;0.60;;
61112;SDS011;47184;57.998;56.184;2023-07-13T00:52:44;1.38;;;0.70;;
61112;SDS011;47184;57.998;56.184;2023-07-13T00:55:19;4.72;;;0.57;;
61112;SDS011;47184;57.998;56.184;2023-07-13T00:57:48;2.63;;;1.10;;
61112;SDS011;47184;57.998;56.184;2023-07-13T01:00:14;1.33;;;0.95;;
61112;SDS011;47184;57.998;56.184;2023-07-13T01:02:42;2.47;;;1.40;;
61112;SDS011;47184;57.998;56.184;2023-07-13T01:05:13;3.92;;;1.60;;
61112;SDS011;47184;57.998;56.184;2023-07-13T01:07:40;5.97;;;2.15;;
61112;SDS011;47184;57.998;56.184;2023-07-13T01:10:09;4.68;;;1.67;;
61112;SDS011;47184;57.998;56.184;2023-07-13T01:12:37;2.80;;;0.80;;
61112;SDS011;47184;57.998;56.184;2023-07-13T01:15:03;2.08;;;1.30;;
61112;SDS011;47184;57.998;56.184;2023-07-13T01:17:31;4.75;;;2.47;;
61112;SDS011;47184;57.998;56.184;2023-07-13T01:19:59;3.72;;;1.42;;
61112;SDS011;47184;57.998;56.184;2023-07-13T01:22:26;7.30;;;1.23;;
61112;SDS011;47184;57.998;56.184;2023-07-13T01:24:53;1.08;;;0.40;;
61112;SDS011;47184;57.998;56.184;2023-07-13T01:27:24;7.53;;;1.30;;
61112;SDS011;47184;57.998;56.184;2023-07-13T01:29:52;1.92;;;0.90;;
61112;SDS011;47184;57.998;56.184;2023-07-13T01:32:19;2.97;;;0.73;;
61112;SDS011;47184;57.998;56.184;2023-07-13T01:34:53;1.10;;;0.40;;
61112;SDS011;47184;57.998;56.184;2023-07-13T01:37:20;1.42;;;0.32;;
61112;SDS011;47184;57.998;56.184;2023-07-13T01:39:47;0.70;;;0.43;;
61112;SDS011;47184;57.998;56.184;2023-07-13T01:42:13;0.50;;;0.20;;
61112;SDS011;47184;57.998;56.184;2023-07-13T01:44:40;0.40;;;0.10;;
61112;SDS011;47184;57.998;56.184;2023-07-13T01:47:07;0.20;;;0.20;;
61112;SDS011;47184;57.998;56.184;2023-07-13T01:49:33;0.50;;;0.20;;
61112;SDS011;47184;57.998;56.184;2023-07-13T01:51:59;1.20;;;0.10;;
61112;SDS011;47184;57.998;56.184;2023-07-13T01:54:24;0.32;;;0.15;;
61112;SDS011;47184;57.998;56.184;2023-07-13T01:56:51;0.40;;;0.20;;
61112;SDS011;47184;57.998;56.184;2023-07-13T01:59:17;3.38;;;0.17;;
61112;SDS011;47184;57.998;56.184;2023-07-13T02:01:43;0.10;;;0.10;;
61112;SDS011;47184;57.998;56.184;2023-07-13T02:04:09;1.15;;;0.10;;
61112;SDS011;47184;57.998;56.184;2023-07-13T02:06:36;0.17;;;0.13;;
61112;SDS011;47184;57.998;56.184;2023-07-13T02:09:02;1.02;;;0.10;;
61112;SDS011;47184;57.998;56.184;2023-07-13T02:11:28;0.98;;;0.17;;
61112;SDS011;47184;57.998;56.184;2023-07-13T02:14:02;1.45;;;0.20;;
61112;SDS011;47184;57.998;56.184;2023-07-13T02:16:29;1.23;;;0.40;;
61112;SDS011;47184;57.998;56.184;2023-07-13T02:18:56;0.57;;;0.20;;
61112;SDS011;47184;57.998;56.184;2023-07-13T02:21:22;1.10;;;0.30;;
61112;SDS011;47184;57.998;56.184;2023-07-13T02:23:51;0.75;;;0.30;;
61112;SDS011;47184;57.998;56.184;2023-07-13T02:26:18;0.65;;;0.20;;
61112;SDS011;47184;57.998;56.184;2023-07-13T02:28:44;0.60;;;0.30;;
61112;SDS011;47184;57.998;56.184;2023-07-13T02:31:12;0.17;;;0.10;;
61112;SDS011;47184;57.998;56.184;2023-07-13T02:33:40;0.65;;;0.28;;
61112;SDS011;47184;57.998;56.184;2023-07-13T02:36:06;0.77;;;0.40;;
61112;SDS011;47184;57.998;56.184;2023-07-13T02:38:32;6.97;;;0.70;;
61112;SDS011;47184;57.998;56.184;2023-07-13T02:41:03;2.50;;;0.52;;
61112;SDS011;47184;57.998;56.184;2023-07-13T02:43:30;1.85;;;0.40;;
61112;SDS011;47184;57.998;56.184;2023-07-13T02:45:56;1.08;;;0.65;;
61112;SDS011;47184;57.998;56.184;2023-07-13T02:48:25;1.60;;;0.50;;
61112;SDS011;47184;57.998;56.184;2023-07-13T02:50:51;2.47;;;0.60;;
61112;SDS011;47184;57.998;56.184;2023-07-13T02:53:17;0.95;;;0.38;;
61112;SDS011;47184;57.998;56.184;2023-07-13T02:55:43;6.47;;;1.60;;
61112;SDS011;47184;57.998;56.184;2023-07-13T02:58:13;2.95;;;0.70;;
61112;SDS011;47184;57.998;56.184;2023-07-13T03:00:46;1.85;;;0.75;;
61112;SDS011;47184;57.998;56.184;2023-07-13T03:03:16;3.75;;;1.23;;
61112;SDS011;47184;57.998;56.184;2023-07-13T03:05:43;2.17;;;0.85;;
61112;SDS011;47184;57.998;56.184;2023-07-13T03:08:12;2.45;;;0.80;;
61112;SDS011;47184;57.998;56.184;2023-07-13T03:10:40;6.13;;;1.90;;
61112;SDS011;47184;57.998;56.184;2023-07-13T03:13:09;19.20;;;7.53;;
61112;SDS011;47184;57.998;56.184;2023-07-13T03:15:35;17.70;;;7.18;;
61112;SDS011;47184;57.998;56.184;2023-07-13T03:18:02;36.33;;;15.27;;
61112;SDS011;47184;57.998;56.184;2023-07-13T03:20:31;15.57;;;7.15;;
61112;SDS011;47184;57.998;56.184;2023-07-13T03:22:58;18.92;;;7.50;;
61112;SDS011;47184;57.998;56.184;2023-07-13T03:25:26;12.43;;;5.60;;
61112;SDS011;47184;57.998;56.184;2023-07-13T03:27:53;7.25;;;1.88;;
61112;SDS011;47184;57.998;56.184;2023-07-13T03:30:19;2.60;;;1.10;;
61112;SDS011;47184;57.998;56.184;2023-07-13T03:32:46;2.92;;;0.88;;
61112;SDS011;47184;57.998;56.184;2023-07-13T03:35:12;1.85;;;0.57;;
61112;SDS011;47184;57.998;56.184;2023-07-13T03:37:39;1.83;;;0.80;;
61112;SDS011;47184;57.998;56.184;2023-07-13T03:40:11;0.28;;;0.15;;
61112;SDS011;47184;57.998;56.184;2023-07-13T03:42:38;0.17;;;0.08;;
61112;SDS011;47184;57.998;56.184;2023-07-13T03:45:04;3.90;;;0.47;;
61112;SDS011;47184;57.998;56.184;2023-07-13T03:47:32;0.22;;;0.17;;
61112;SDS011;47184;57.998;56.184;2023-07-13T03:50:01;0.85;;;0.35;;
61112;SDS011;47184;57.998;56.184;2023-07-13T03:52:27;2.38;;;0.45;;
61112;SDS011;47184;57.998;56.184;2023-07-13T03:54:53;1.23;;;0.65;;
61112;SDS011;47184;57.998;56.184;2023-07-13T03:57:20;1.75;;;0.70;;
61112;SDS011;47184;57.998;56.184;2023-07-13T03:59:46;1.45;;;0.70;;
61112;SDS011;47184;57.998;56.184;2023-07-13T04:02:12;2.45;;;0.95;;
61112;SDS011;47184;57.998;56.184;2023-07-13T04:04:38;3.63;;;1.30;;
61112;SDS011;47184;57.998;56.184;2023-07-13T04:07:06;2.25;;;1.20;;
61112;SDS011;47184;57.998;56.184;2023-07-13T04:09:34;0.43;;;0.40;;
61112;SDS011;47184;57.998;56.184;2023-07-13T04:12:02;2.05;;;0.75;;
61112;SDS011;47184;57.998;56.184;2023-07-13T04:14:29;0.60;;;0.40;;
61112;SDS011;47184;57.998;56.184;2023-07-13T04:16:55;0.70;;;0.35;;
61112;SDS011;47184;57.998;56.184;2023-07-13T04:19:21;2.00;;;0.60;;
61112;SDS011;47184;57.998;56.184;2023-07-13T04:21:47;1.48;;;0.77;;
61112;SDS011;47184;57.998;56.184;2023-07-13T04:24:13;0.52;;;0.32;;
61112;SDS011;47184;57.998;56.184;2023-07-13T04:26:39;4.85;;;0.57;;
61112;SDS011;47184;57.998;56.184;2023-07-13T04:29:06;0.90;;;0.60;;
61112;SDS011;47184;57.998;56.184;2023-07-13T04:31:32;3.00;;;0.70;;
61112;SDS011;47184;57.998;56.184;2023-07-13T04:33:59;0.93;;;0.52;;
61112;SDS011;47184;57.998;56.184;2023-07-13T04:36:25;2.58;;;0.90;;
61112;SDS011;47184;57.998;56.184;2023-07-13T04:38:54;3.08;;;1.20;;
61112;SDS011;47184;57.998;56.184;2023-07-13T04:41:20;7.53;;;1.25;;
61112;SDS011;47184;57.998;56.184;2023-07-13T04:43:47;1.70;;;0.70;;
61112;SDS011;47184;57.998;56.184;2023-07-13T04:46:14;6.63;;;0.40;;
61112;SDS011;47184;57.998;56.184;2023-07-13T04:48:43;0.70;;;0.60;;
61112;SDS011;47184;57.998;56.184;2023-07-13T04:51:10;1.27;;;0.57;;
61112;SDS011;47184;57.998;56.184;2023-07-13T04:53:36;1.17;;;0.60;;
61112;SDS011;47184;57.998;56.184;2023-07-13T04:56:03;2.63;;;0.70;;
61112;SDS011;47184;57.998;56.184;2023-07-13T04:58:32;1.95;;;1.02;;
61112;SDS011;47184;57.998;56.184;2023-07-13T05:00:59;0.70;;;0.47;;
61112;SDS011;47184;57.998;56.184;2023-07-13T05:03:26;1.23;;;0.65;;
61112;SDS011;47184;57.998;56.184;2023-07-13T05:05:56;0.95;;;0.60;;
61112;SDS011;47184;57.998;56.184;2023-07-13T05:08:35;0.68;;;0.52;;
61112;SDS011;47184;57.998;56.184;2023-07-13T05:11:01;2.50;;;0.70;;
61112;SDS011;47184;57.998;56.184;2023-07-13T05:13:29;1.35;;;0.68;;
61112;SDS011;47184;57.998;56.184;2023-07-13T05:15:59;3.50;;;1.08;;
61112;SDS011;47184;57.998;56.184;2023-07-13T05:18:30;1.52;;;0.85;;
61112;SDS011;47184;57.998;56.184;2023-07-13T05:20:57;1.65;;;0.88;;
61112;SDS011;47184;57.998;56.184;2023-07-13T05:23:28;1.90;;;0.90;;
61112;SDS011;47184;57.998;56.184;2023-07-13T05:25:55;1.88;;;0.90;;
61112;SDS011;47184;57.998;56.184;2023-07-13T05:28:23;16.10;;;1.20;;
61112;SDS011;47184;57.998;56.184;2023-07-13T05:30:50;0.88;;;0.82;;
61112;SDS011;47184;57.998;56.184;2023-07-13T05:33:17;0.40;;;0.40;;
61112;SDS011;47184;57.998;56.184;2023-07-13T05:35:43;2.75;;;1.15;;
61112;SDS011;47184;57.998;56.184;2023-07-13T05:38:11;1.33;;;0.90;;
61112;SDS011;47184;57.998;56.184;2023-07-13T05:40:37;0.70;;;0.60;;
61112;SDS011;47184;57.998;56.184;2023-07-13T05:43:03;1.17;;;0.50;;
61112;SDS011;47184;57.998;56.184;2023-07-13T05:45:31;0.60;;;0.50;;
61112;SDS011;47184;57.998;56.184;2023-07-13T05:47:57;4.88;;;0.95;;
61112;SDS011;47184;57.998;56.184;2023-07-13T05:50:23;1.75;;;1.08;;
61112;SDS011;47184;57.998;56.184;2023-07-13T05:52:49;1.15;;;0.95;;
61112;SDS011;47184;57.998;56.184;2023-07-13T05:55:15;3.25;;;1.08;;
61112;SDS011;47184;57.998;56.184;2023-07-13T05:57:41;5.65;;;1.10;;
61112;SDS011;47184;57.998;56.184;2023-07-13T06:00:07;0.75;;;0.47;;
61112;SDS011;47184;57.998;56.184;2023-07-13T06:02:37;10.93;;;1.15;;
61112;SDS011;47184;57.998;56.184;2023-07-13T06:05:04;1.45;;;0.52;;
61112;SDS011;47184;57.998;56.184;2023-07-13T06:07:30;5.97;;;1.15;;
61112;SDS011;47184;57.998;56.184;2023-07-13T06:09:56;1.52;;;0.75;;
61112;SDS011;47184;57.998;56.184;2023-07-13T06:12:22;1.65;;;0.88;;
61112;SDS011;47184;57.998;56.184;2023-07-13T06:14:48;1.50;;;0.77;;
61112;SDS011;47184;57.998;56.184;2023-07-13T06:17:14;5.07;;;1.10;;
61112;SDS011;47184;57.998;56.184;2023-07-13T06:19:40;1.42;;;0.70;;
61112;SDS011;47184;57.998;56.184;2023-07-13T06:22:06;5.60;;;0.95;;
61112;SDS011;47184;57.998;56.184;2023-07-13T06:24:32;6.07;;;0.70;;
61112;SDS011;47184;57.998;56.184;2023-07-13T06:26:58;1.13;;;0.85;;
61112;SDS011;47184;57.998;56.184;2023-07-13T06:29:24;2.90;;;0.60;;
61112;SDS011;47184;57.998;56.184;2023-07-13T06:31:50;2.47;;;0.60;;
61112;SDS011;47184;57.998;56.184;2023-07-13T06:34:16;2.17;;;0.68;;
61112;SDS011;47184;57.998;56.184;2023-07-13T06:36:42;2.80;;;0.85;;
61112;SDS011;47184;57.998;56.184;2023-07-13T06:39:08;4.15;;;1.63;;
61112;SDS011;47184;57.998;56.184;2023-07-13T06:41:34;4.50;;;1.20;;
61112;SDS011;47184;57.998;56.184;2023-07-13T06:44:01;3.05;;;1.55;;
61112;SDS011;47184;57.998;56.184;2023-07-13T06:46:28;1.92;;;1.00;;
61112;SDS011;47184;57.998;56.184;2023-07-13T06:48:54;2.65;;;0.77;;
61112;SDS011;47184;57.998;56.184;2023-07-13T06:51:20;4.88;;;0.90;;
61112;SDS011;47184;57.998;56.184;2023-07-13T06:53:46;3.35;;;0.90;;
61112;SDS011;47184;57.998;56.184;2023-07-13T06:56:12;1.40;;;0.65;;
61112;SDS011;47184;57.998;56.184;2023-07-13T06:58:38;1.40;;;0.70;;
61112;SDS011;47184;57.998;56.184;2023-07-13T07:01:04;8.50;;;0.80;;
61112;SDS011;47184;57.998;56.184;2023-07-13T07:03:30;1.65;;;0.68;;
61112;SDS011;47184;57.998;56.184;2023-07-13T07:06:01;3.67;;;1.48;;
61112;SDS011;47184;57.998;56.184;2023-07-13T07:08:42;10.65;;;3.15;;
61112;SDS011;47184;57.998;56.184;2023-07-13T07:11:11;2.85;;;0.90;;
61112;SDS011;47184;57.998;56.184;2023-07-13T07:13:38;2.83;;;1.20;;
61112;SDS011;47184;57.998;56.184;2023-07-13T07:16:04;1.63;;;0.65;;
61112;SDS011;47184;57.998;56.184;2023-07-13T07:18:31;4.30;;;1.00;;
61112;SDS011;47184;57.998;56.184;2023-07-13T07:20:56;0.57;;;0.50;;
61112;SDS011;47184;57.998;56.184;2023-07-13T07:23:22;0.47;;;0.40;;
61112;SDS011;47184;57.998;56.184;2023-07-13T07:25:48;3.22;;;0.40;;
61112;SDS011;47184;57.998;56.184;2023-07-13T07:28:16;4.63;;;0.70;;
61112;SDS011;47184;57.998;56.184;2023-07-13T07:30:45;1.40;;;0.70;;
61112;SDS011;47184;57.998;56.184;2023-07-13T07:33:11;7.22;;;0.95;;
61112;SDS011;47184;57.998;56.184;2023-07-13T07:35:38;2.42;;;0.60;;
61112;SDS011;47184;57.998;56.184;2023-07-13T07:38:04;0.52;;;0.35;;
61112;SDS011;47184;57.998;56.184;2023-07-13T07:40:30;0.90;;;0.60;;
61112;SDS011;47184;57.998;56.184;2023-07-13T07:42:57;0.50;;;0.50;;
61112;SDS011;47184;57.998;56.184;2023-07-13T07:45:23;4.32;;;0.80;;
61112;SDS011;47184;57.998;56.184;2023-07-13T07:47:49;0.50;;;0.45;;
61112;SDS011;47184;57.998;56.184;2023-07-13T07:50:20;2.33;;;0.70;;
61112;SDS011;47184;57.998;56.184;2023-07-13T07:52:46;1.98;;;0.80;;
61112;SDS011;47184;57.998;56.184;2023-07-13T07:55:12;1.48;;;0.57;;
61112;SDS011;47184;57.998;56.184;2023-07-13T07:57:38;1.42;;;0.85;;
61112;SDS011;47184;57.998;56.184;2023-07-13T08:00:04;5.22;;;0.70;;
61112;SDS011;47184;57.998;56.184;2023-07-13T08:02:40;1.58;;;0.80;;
61112;SDS011;47184;57.998;56.184;2023-07-13T08:05:07;6.70;;;1.40;;
61112;SDS011;47184;57.998;56.184;2023-07-13T08:07:33;5.68;;;1.00;;
61112;SDS011;47184;57.998;56.184;2023-07-13T08:10:00;2.85;;;0.90;;
61112;SDS011;47184;57.998;56.184;2023-07-13T08:12:28;0.60;;;0.50;;
61112;SDS011;47184;57.998;56.184;2023-07-13T08:14:54;2.38;;;0.80;;
61112;SDS011;47184;57.998;56.184;2023-07-13T08:17:23;1.77;;;0.88;;
61112;SDS011;47184;57.998;56.184;2023-07-13T08:19:50;3.05;;;0.90;;
61112;SDS011;47184;57.998;56.184;2023-07-13T08:22:16;4.25;;;1.00;;
61112;SDS011;47184;57.998;56.184;2023-07-13T08:24:42;6.55;;;1.10;;
61112;SDS011;47184;57.998;56.184;2023-07-13T08:27:09;5.60;;;0.95;;
61112;SDS011;47184;57.998;56.184;2023-07-13T08:29:37;2.50;;;1.40;;
61112;SDS011;47184;57.998;56.184;2023-07-13T08:32:04;3.80;;;1.20;;
61112;SDS011;47184;57.998;56.184;2023-07-13T08:34:36;6.37;;;0.57;;
61112;SDS011;47184;57.998;56.184;2023-07-13T08:37:02;1.40;;;0.73;;
61112;SDS011;47184;57.998;56.184;2023-07-13T08:39:29;2.17;;;0.80;;
61112;SDS011;47184;57.998;56.184;2023-07-13T08:41:58;3.15;;;1.20;;
61112;SDS011;47184;57.998;56.184;2023-07-13T08:47:11;3.42;;;1.10;;
61112;SDS011;47184;57.998;56.184;2023-07-13T08:49:40;2.10;;;0.80;;
61112;SDS011;47184;57.998;56.184;2023-07-13T08:52:10;1.83;;;1.00;;
61112;SDS011;47184;57.998;56.184;2023-07-13T08:54:49;5.60;;;0.90;;
61112;SDS011;47184;57.998;56.184;2023-07-13T08:57:18;6.57;;;1.65;;
61112;SDS011;47184;57.998;56.184;2023-07-13T08:59:46;6.05;;;0.80;;
61112;SDS011;47184;57.998;56.184;2023-07-13T09:11:34;9.95;;;1.00;;
61112;SDS011;47184;57.998;56.184;2023-07-13T09:16:53;1.30;;;0.65;;
61112;SDS011;47184;57.998;56.184;2023-07-13T09:19:21;3.60;;;0.90;;
61112;SDS011;47184;57.998;56.184;2023-07-13T09:21:53;6.30;;;1.25;;
61112;SDS011;47184;57.998;56.184;2023-07-13T09:27:11;4.43;;;1.05;;
61112;SDS011;47184;57.998;56.184;2023-07-13T09:29:46;1.88;;;0.93;;
61112;SDS011;47184;57.998;56.184;2023-07-13T09:32:39;5.80;;;0.93;;
61112;SDS011;47184;57.998;56.184;2023-07-13T09:35:16;4.97;;;0.88;;
61112;SDS011;47184;57.998;56.184;2023-07-13T09:37:45;3.50;;;0.80;;
61112;SDS011;47184;57.998;56.184;2023-07-13T09:40:25;17.60;;;1.38;;
61112;SDS011;47184;57.998;56.184;2023-07-13T09:43:02;4.55;;;0.93;;
61112;SDS011;47184;57.998;56.184;2023-07-13T09:45:30;6.35;;;1.13;;
61112;SDS011;47184;57.998;56.184;2023-07-13T09:47:59;4.53;;;1.00;;
61112;SDS011;47184;57.998;56.184;2023-07-13T09:50:33;23.67;;;2.63;;
61112;SDS011;47184;57.998;56.184;2023-07-13T09:53:00;1.52;;;0.65;;
61112;SDS011;47184;57.998;56.184;2023-07-13T09:55:46;11.32;;;1.88;;
61112;SDS011;47184;57.998;56.184;2023-07-13T09:58:14;31.00;;;3.05;;
61112;SDS011;47184;57.998;56.184;2023-07-13T10:00:57;18.42;;;2.47;;
61112;SDS011;47184;57.998;56.184;2023-07-13T10:03:31;69.30;;;5.30;;
61112;SDS011;47184;57.998;56.184;2023-07-13T10:06:16;2.80;;;1.08;;
61112;SDS011;47184;57.998;56.184;2023-07-13T10:08:44;2.67;;;0.60;;
61112;SDS011;47184;57.998;56.184;2023-07-13T10:13:44;2.78;;;0.82;;
61112;SDS011;47184;57.998;56.184;2023-07-13T10:16:15;4.13;;;1.83;;
61112;SDS011;47184;57.998;56.184;2023-07-13T10:18:46;3.33;;;1.17;;
61112;SDS011;47184;57.998;56.184;2023-07-13T10:21:17;4.30;;;1.58;;
61112;SDS011;47184;57.998;56.184;2023-07-13T10:23:56;2.00;;;0.77;;
61112;SDS011;47184;57.998;56.184;2023-07-13T10:26:46;3.30;;;0.93;;
61112;SDS011;47184;57.998;56.184;2023-07-13T10:29:17;5.20;;;0.80;;
61112;SDS011;47184;57.998;56.184;2023-07-13T10:31:44;1.98;;;0.82;;
61112;SDS011;47184;57.998;56.184;2023-07-13T10:34:11;4.18;;;1.10;;
61112;SDS011;47184;57.998;56.184;2023-07-13T10:36:45;9.80;;;0.80;;
61112;SDS011;47184;57.998;56.184;2023-07-13T10:39:20;6.22;;;1.00;;
61112;SDS011;47184;57.998;56.184;2023-07-13T10:41:58;3.78;;;0.73;;
61112;SDS011;47184;57.998;56.184;2023-07-13T10:44:27;7.00;;;1.15;;
61112;SDS011;47184;57.998;56.184;2023-07-13T10:46:55;2.72;;;1.20;;
61112;SDS011;47184;57.998;56.184;2023-07-13T10:49:26;4.07;;;0.90;;
61112;SDS011;47184;57.998;56.184;2023-07-13T10:51:54;5.18;;;0.65;;
61112;SDS011;47184;57.998;56.184;2023-07-13T10:54:21;4.22;;;0.60;;
61112;SDS011;47184;57.998;56.184;2023-07-13T10:57:05;2.47;;;0.85;;
61112;SDS011;47184;57.998;56.184;2023-07-13T10:59:38;1.90;;;0.80;;
61112;SDS011;47184;57.998;56.184;2023-07-13T11:02:11;2.85;;;1.00;;
61112;SDS011;47184;57.998;56.184;2023-07-13T11:04:47;0.98;;;0.60;;
61112;SDS011;47184;57.998;56.184;2023-07-13T11:07:24;1.50;;;0.90;;
61112;SDS011;47184;57.998;56.184;2023-07-13T11:09:54;2.28;;;0.80;;
61112;SDS011;47184;57.998;56.184;2023-07-13T11:20:42;2.10;;;0.80;;
61112;SDS011;47184;57.998;56.184;2023-07-13T11:22:44;2.97;;;1.00;;
61112;SDS011;47184;57.998;56.184;2023-07-13T11:27:52;13.07;;;1.10;;
61112;SDS011;47184;57.998;56.184;2023-07-13T11:38:33;6.82;;;0.85;;
61112;SDS011;47184;57.998;56.184;2023-07-13T11:41:15;2.40;;;1.27;;
61112;SDS011;47184;57.998;56.184;2023-07-13T11:43:45;2.30;;;1.08;;
61112;SDS011;47184;57.998;56.184;2023-07-13T11:46:22;1.45;;;0.80;;
61112;SDS011;47184;57.998;56.184;2023-07-13T11:48:53;3.78;;;1.05;;
61112;SDS011;47184;57.998;56.184;2023-07-13T11:51:21;7.80;;;0.70;;
61112;SDS011;47184;57.998;56.184;2023-07-13T11:54:05;4.95;;;0.70;;
61112;SDS011;47184;57.998;56.184;2023-07-13T11:56:42;8.60;;;1.05;;
61112;SDS011;47184;57.998;56.184;2023-07-13T11:59:10;3.95;;;0.98;;
61112;SDS011;47184;57.998;56.184;2023-07-13T12:01:43;7.13;;;0.90;;
61112;SDS011;47184;57.998;56.184;2023-07-13T12:04:22;4.05;;;1.00;;
61112;SDS011;47184;57.998;56.184;2023-07-13T12:06:56;27.73;;;2.10;;
61112;SDS011;47184;57.998;56.184;2023-07-13T12:09:25;6.13;;;0.97;;
61112;SDS011;47184;57.998;56.184;2023-07-13T12:11:53;16.90;;;2.13;;
61112;SDS011;47184;57.998;56.184;2023-07-13T12:14:19;13.60;;;2.10;;
61112;SDS011;47184;57.998;56.184;2023-07-13T12:16:46;2.97;;;0.88;;
61112;SDS011;47184;57.998;56.184;2023-07-13T12:19:18;2.97;;;0.90;;
61112;SDS011;47184;57.998;56.184;2023-07-13T12:21:47;2.05;;;0.80;;
61112;SDS011;47184;57.998;56.184;2023-07-13T12:24:15;0.88;;;0.63;;
61112;SDS011;47184;57.998;56.184;2023-07-13T12:26:42;1.27;;;0.88;;
61112;SDS011;47184;57.998;56.184;2023-07-13T12:29:15;11.57;;;0.93;;
61112;SDS011;47184;57.998;56.184;2023-07-13T12:31:43;1.42;;;0.75;;
61112;SDS011;47184;57.998;56.184;2023-07-13T12:36:46;7.10;;;1.20;;
61112;SDS011;47184;57.998;56.184;2023-07-13T12:39:17;3.22;;;0.80;;
61112;SDS011;47184;57.998;56.184;2023-07-13T12:42:16;7.53;;;1.02;;
61112;SDS011;47184;57.998;56.184;2023-07-13T12:44:43;2.35;;;1.08;;
61112;SDS011;47184;57.998;56.184;2023-07-13T12:47:11;2.78;;;0.80;;
61112;SDS011;47184;57.998;56.184;2023-07-13T12:49:43;2.53;;;0.90;;
61112;SDS011;47184;57.998;56.184;2023-07-13T12:52:15;5.35;;;0.90;;
61112;SDS011;47184;57.998;56.184;2023-07-13T12:54:53;5.28;;;1.35;;
61112;SDS011;47184;57.998;56.184;2023-07-13T12:57:22;4.32;;;1.15;;
61112;SDS011;47184;57.998;56.184;2023-07-13T12:59:51;3.38;;;0.80;;
61112;SDS011;47184;57.998;56.184;2023-07-13T13:02:21;2.15;;;0.82;;
61112;SDS011;47184;57.998;56.184;2023-07-13T13:04:54;4.82;;;1.15;;
61112;SDS011;47184;57.998;56.184;2023-07-13T13:07:21;2.58;;;1.45;;
61112;SDS011;47184;57.998;56.184;2023-07-13T13:09:47;6.47;;;0.77;;
61112;SDS011;47184;57.998;56.184;2023-07-13T13:12:13;2.65;;;0.93;;
61112;SDS011;47184;57.998;56.184;2023-07-13T13:14:40;2.53;;;0.80;;
61112;SDS011;47184;57.998;56.184;2023-07-13T13:17:22;3.38;;;0.88;;
61112;SDS011;47184;57.998;56.184;2023-07-13T13:19:50;2.42;;;1.27;;
61112;SDS011;47184;57.998;56.184;2023-07-13T13:22:23;1.48;;;1.00;;
61112;SDS011;47184;57.998;56.184;2023-07-13T13:24:49;3.28;;;0.90;;
61112;SDS011;47184;57.998;56.184;2023-07-13T13:27:16;1.80;;;0.88;;
61112;SDS011;47184;57.998;56.184;2023-07-13T13:29:47;4.05;;;0.95;;
61112;SDS011;47184;57.998;56.184;2023-07-13T13:32:15;1.08;;;0.50;;
61112;SDS011;47184;57.998;56.184;2023-07-13T13:34:42;0.88;;;0.63;;
61112;SDS011;47184;57.998;56.184;2023-07-13T13:37:20;1.88;;;0.70;;
61112;SDS011;47184;57.998;56.184;2023-07-13T13:39:48;1.42;;;0.82;;
61112;SDS011;47184;57.998;56.184;2023-07-13T13:42:21;1.65;;;0.98;;
61112;SDS011;47184;57.998;56.184;2023-07-13T13:44:50;3.35;;;1.95;;
61112;SDS011;47184;57.998;56.184;2023-07-13T13:47:21;3.30;;;1.70;;
61112;SDS011;47184;57.998;56.184;2023-07-13T13:49:58;4.68;;;1.20;;
61112;SDS011;47184;57.998;56.184;2023-07-13T13:52:25;4.65;;;1.20;;
61112;SDS011;47184;57.998;56.184;2023-07-13T13:54:51;1.30;;;1.00;;
61112;SDS011;47184;57.998;56.184;2023-07-13T13:57:22;2.63;;;1.05;;
61112;SDS011;47184;57.998;56.184;2023-07-13T13:59:49;2.75;;;1.00;;
61112;SDS011;47184;57.998;56.184;2023-07-13T14:02:22;2.28;;;1.02;;
61112;SDS011;47184;57.998;56.184;2023-07-13T14:04:53;2.97;;;1.33;;
61112;SDS011;47184;57.998;56.184;2023-07-13T14:07:22;5.45;;;2.08;;
61112;SDS011;47184;57.998;56.184;2023-07-13T14:09:47;6.90;;;1.20;;
61112;SDS011;47184;57.998;56.184;2023-07-13T14:12:13;4.10;;;1.38;;
61112;SDS011;47184;57.998;56.184;2023-07-13T14:14:40;2.33;;;0.98;;
61112;SDS011;47184;57.998;56.184;2023-07-13T14:17:12;3.80;;;1.17;;
61112;SDS011;47184;57.998;56.184;2023-07-13T14:19:48;5.53;;;1.27;;
61112;SDS011;47184;57.998;56.184;2023-07-13T14:22:25;10.05;;;1.40;;
61112;SDS011;47184;57.998;56.184;2023-07-13T14:24:52;8.48;;;1.05;;
61112;SDS011;47184;57.998;56.184;2023-07-13T14:27:19;3.58;;;1.20;;
61112;SDS011;47184;57.998;56.184;2023-07-13T14:29:45;5.70;;;1.50;;
61112;SDS011;47184;57.998;56.184;2023-07-13T14:32:12;7.38;;;2.20;;
61112;SDS011;47184;57.998;56.184;2023-07-13T14:34:39;10.02;;;1.70;;
61112;SDS011;47184;57.998;56.184;2023-07-13T14:37:05;6.97;;;1.17;;
61112;SDS011;47184;57.998;56.184;2023-07-13T14:39:38;5.88;;;1.05;;
61112;SDS011;47184;57.998;56.184;2023-07-13T14:42:03;8.68;;;1.55;;
61112;SDS011;47184;57.998;56.184;2023-07-13T14:44:30;9.05;;;1.40;;
61112;SDS011;47184;57.998;56.184;2023-07-13T14:47:00;1.73;;;1.10;;
61112;SDS011;47184;57.998;56.184;2023-07-13T14:49:40;14.57;;;1.48;;
61112;SDS011;47184;57.998;56.184;2023-07-13T14:52:16;2.53;;;1.25;;
61112;SDS011;47184;57.998;56.184;2023-07-13T14:54:48;8.38;;;1.80;;
61112;SDS011;47184;57.998;56.184;2023-07-13T14:57:15;9.13;;;1.23;;
61112;SDS011;47184;57.998;56.184;2023-07-13T14:59:42;5.05;;;1.10;;
61112;SDS011;47184;57.998;56.184;2023-07-13T15:02:33;3.33;;;1.10;;
61112;SDS011;47184;57.998;56.184;2023-07-13T15:05:05;3.90;;;1.42;;
61112;SDS011;47184;57.998;56.184;2023-07-13T15:07:40;3.03;;;1.50;;
61112;SDS011;47184;57.998;56.184;2023-07-13T15:10:39;8.30;;;1.10;;
61112;SDS011;47184;57.998;56.184;2023-07-13T15:13:00;7.60;;;1.38;;
61112;SDS011;47184;57.998;56.184;2023-07-13T15:15:38;23.35;;;2.28;;
61112;SDS011;47184;57.998;56.184;2023-07-13T15:18:05;12.02;;;1.50;;
61112;SDS011;47184;57.998;56.184;2023-07-13T15:20:37;8.05;;;1.30;;
61112;SDS011;47184;57.998;56.184;2023-07-13T15:23:03;5.00;;;1.58;;
61112;SDS011;47184;57.998;56.184;2023-07-13T15:25:30;22.80;;;1.90;;
61112;SDS011;47184;57.998;56.184;2023-07-13T15:27:58;6.93;;;1.55;;
61112;SDS011;47184;57.998;56.184;2023-07-13T15:30:28;9.48;;;1.38;;